createdAt,value
2019-05-25T00:00:36.461Z,0.00
2019-05-25T00:01:36.474Z,0.00
2019-05-25T00:02:36.439Z,0.00
2019-05-25T00:03:36.433Z,0.00
2019-05-25T00:04:36.419Z,0.00
2019-05-25T00:05:36.406Z,0.00
2019-05-25T00:06:36.398Z,0.00
2019-05-25T00:07:36.396Z,0.00
2019-05-25T00:08:36.374Z,0.00
2019-05-25T00:09:36.367Z,0.00
2019-05-25T00:10:36.353Z,0.00
2019-05-25T00:11:36.354Z,0.00
2019-05-25T00:12:36.342Z,0.00
2019-05-25T00:13:36.322Z,0.00
2019-05-25T00:14:36.310Z,0.00
2019-05-25T00:15:36.300Z,0.00
2019-05-25T00:16:36.296Z,0.00
2019-05-25T00:17:36.291Z,0.00
2019-05-25T00:18:36.266Z,0.00
2019-05-25T00:19:36.263Z,0.00
2019-05-25T00:20:36.248Z,0.00
2019-05-25T00:21:36.237Z,0.00
2019-05-25T00:22:36.238Z,0.00
2019-05-25T00:23:36.214Z,0.00
2019-05-25T00:24:36.203Z,0.00
2019-05-25T00:25:36.193Z,0.00
2019-05-25T00:26:36.181Z,0.00
2019-05-25T00:27:36.184Z,0.00
2019-05-25T00:28:36.219Z,0.00
2019-05-25T00:29:36.148Z,0.00
2019-05-25T00:30:36.139Z,0.00
2019-05-25T00:31:36.129Z,0.00
2019-05-25T00:32:36.127Z,0.00
2019-05-25T00:33:36.106Z,0.00
2019-05-25T00:34:36.094Z,0.00
2019-05-25T00:35:36.093Z,0.00
2019-05-25T00:36:36.073Z,0.00
2019-05-25T00:37:36.075Z,0.00
2019-05-25T00:38:36.052Z,0.00
2019-05-25T00:39:36.041Z,0.00
2019-05-25T00:40:36.038Z,0.00
2019-05-25T00:41:36.025Z,0.00
2019-05-25T00:42:36.021Z,0.00
2019-05-25T00:43:36.003Z,0.00
2019-05-25T00:44:35.990Z,0.00
2019-05-25T00:45:35.977Z,0.00
2019-05-25T00:46:35.981Z,0.00
2019-05-25T00:47:36.017Z,0.00
2019-05-25T00:48:35.944Z,0.00
2019-05-25T00:49:35.934Z,0.00
2019-05-25T00:50:35.935Z,0.00
2019-05-25T00:51:35.914Z,0.00
2019-05-25T00:52:35.915Z,0.00
2019-05-25T00:53:35.900Z,0.00
2019-05-25T00:54:35.882Z,0.00
2019-05-25T00:55:35.869Z,0.00
2019-05-25T00:56:35.859Z,0.00
2019-05-25T00:57:35.861Z,0.00
2019-05-25T00:58:35.837Z,0.00
2019-05-25T00:59:35.827Z,0.00
2019-05-25T01:00:35.815Z,0.00
2019-05-25T01:01:35.815Z,0.00
2019-05-25T01:02:35.830Z,0.00
2019-05-25T01:03:35.783Z,0.00
2019-05-25T01:04:35.773Z,0.00
2019-05-25T01:05:35.766Z,0.00
2019-05-25T01:06:35.751Z,0.00
2019-05-25T01:07:35.750Z,0.00
2019-05-25T01:08:35.743Z,0.00
2019-05-25T01:09:35.728Z,0.00
2019-05-25T01:10:35.708Z,0.00
2019-05-25T01:11:35.705Z,0.00
2019-05-25T01:12:35.690Z,0.00
2019-05-25T01:13:35.690Z,0.00
2019-05-25T01:14:35.685Z,0.00
2019-05-25T01:15:35.655Z,0.00
2019-05-25T01:16:35.649Z,0.00
2019-05-25T01:17:35.632Z,0.00
2019-05-25T01:18:35.635Z,0.00
2019-05-25T01:19:35.618Z,0.00
2019-05-25T01:20:35.601Z,0.00
2019-05-25T01:21:35.590Z,0.00
2019-05-25T01:22:35.583Z,0.00
2019-05-25T01:23:35.589Z,0.00
2019-05-25T01:24:44.296Z,0.00
2019-05-25T01:25:36.551Z,0.00
2019-05-25T01:26:35.541Z,0.00
2019-05-25T01:27:35.531Z,0.00
2019-05-25T01:28:37.797Z,0.00
2019-05-25T01:29:35.508Z,0.00
2019-05-25T01:30:35.493Z,0.00
2019-05-25T01:31:35.486Z,0.00
2019-05-25T01:32:35.477Z,0.00
2019-05-25T01:33:35.477Z,0.00
2019-05-25T01:34:35.451Z,0.00
2019-05-25T01:35:35.444Z,0.00
2019-05-25T01:36:35.429Z,0.00
2019-05-25T01:37:35.417Z,0.00
2019-05-25T01:38:35.418Z,0.00
2019-05-25T01:39:35.399Z,0.00
2019-05-25T01:40:35.385Z,0.00
2019-05-25T01:41:35.376Z,0.00
2019-05-25T01:42:35.366Z,0.00
2019-05-25T01:43:35.378Z,0.00
2019-05-25T01:44:35.344Z,0.00
2019-05-25T01:45:35.332Z,0.00
2019-05-25T01:46:35.323Z,0.00
2019-05-25T01:47:35.317Z,0.00
2019-05-25T01:48:35.310Z,0.00
2019-05-25T01:49:35.291Z,0.00
2019-05-25T01:50:35.281Z,0.00
2019-05-25T01:51:35.266Z,0.00
2019-05-25T01:52:35.256Z,0.00
2019-05-25T01:53:35.258Z,0.00
2019-05-25T01:54:35.239Z,0.00
2019-05-25T01:55:35.224Z,0.00
2019-05-25T01:56:35.213Z,0.00
2019-05-25T01:57:35.201Z,0.00
2019-05-25T01:58:35.205Z,0.00
2019-05-25T01:59:35.180Z,0.00
2019-05-25T02:00:35.179Z,0.00
2019-05-25T02:01:35.167Z,0.00
2019-05-25T02:02:35.151Z,0.00
2019-05-25T02:03:35.177Z,0.00
2019-05-25T02:04:35.127Z,0.00
2019-05-25T02:05:35.116Z,0.00
2019-05-25T02:06:35.108Z,0.00
2019-05-25T02:07:35.093Z,0.00
2019-05-25T02:08:35.093Z,0.00
2019-05-25T02:09:35.072Z,0.00
2019-05-25T02:10:35.063Z,0.00
2019-05-25T02:11:35.051Z,0.00
2019-05-25T02:12:35.040Z,0.00
2019-05-25T02:13:35.041Z,0.00
2019-05-25T02:14:35.020Z,0.00
2019-05-25T02:15:35.009Z,0.00
2019-05-25T02:16:34.997Z,0.00
2019-05-25T02:17:34.985Z,0.00
2019-05-25T02:18:34.973Z,0.00
2019-05-25T02:19:34.976Z,0.00
2019-05-25T02:20:34.952Z,0.00
2019-05-25T02:21:34.949Z,0.00
2019-05-25T02:22:34.955Z,0.00
2019-05-25T02:23:34.924Z,0.00
2019-05-25T02:24:34.920Z,0.00
2019-05-25T02:25:34.898Z,0.00
2019-05-25T02:26:34.888Z,0.00
2019-05-25T02:27:34.888Z,0.00
2019-05-25T02:28:34.868Z,0.00
2019-05-25T02:29:34.874Z,0.00
2019-05-25T02:30:34.845Z,0.00
2019-05-25T02:31:34.832Z,0.00
2019-05-25T02:32:34.822Z,0.00
2019-05-25T02:33:34.811Z,0.00
2019-05-25T02:34:34.811Z,0.00
2019-05-25T02:35:34.791Z,0.00
2019-05-25T02:36:34.785Z,0.00
2019-05-25T02:37:34.769Z,0.00
2019-05-25T02:38:34.757Z,0.00
2019-05-25T02:39:34.760Z,0.00
2019-05-25T02:40:34.736Z,0.00
2019-05-25T02:41:34.727Z,0.00
2019-05-25T02:42:34.714Z,0.00
2019-05-25T02:43:34.711Z,0.00
2019-05-25T02:44:34.706Z,0.00
2019-05-25T02:45:34.681Z,0.00
2019-05-25T02:46:34.673Z,0.00
2019-05-25T02:47:34.679Z,0.00
2019-05-25T02:48:34.652Z,0.00
2019-05-25T02:49:34.653Z,0.00
2019-05-25T02:50:34.627Z,0.00
2019-05-25T02:51:34.618Z,0.00
2019-05-25T02:52:34.607Z,0.00
2019-05-25T02:53:34.612Z,0.00
2019-05-25T02:54:34.594Z,0.00
2019-05-25T02:55:35.328Z,0.00
2019-05-25T02:56:34.565Z,0.00
2019-05-25T02:57:34.552Z,0.00
2019-05-25T02:58:34.544Z,0.00
2019-05-25T02:59:34.560Z,0.00
2019-05-25T03:00:34.522Z,0.00
2019-05-25T03:01:34.512Z,0.00
2019-05-25T03:02:34.509Z,0.00
2019-05-25T03:03:34.498Z,0.00
2019-05-25T03:04:34.490Z,0.00
2019-05-25T03:05:34.465Z,0.00
2019-05-25T03:06:34.455Z,0.00
2019-05-25T03:07:34.445Z,0.00
2019-05-25T03:08:34.435Z,0.00
2019-05-25T03:09:34.438Z,0.00
2019-05-25T03:10:34.422Z,0.00
2019-05-25T03:11:34.401Z,0.00
2019-05-25T03:12:34.390Z,0.00
2019-05-25T03:13:34.378Z,0.00
2019-05-25T03:14:34.388Z,0.00
2019-05-25T03:15:34.358Z,0.00
2019-05-25T03:16:34.353Z,0.00
2019-05-25T03:17:34.341Z,0.00
2019-05-25T03:18:34.325Z,0.00
2019-05-25T03:19:34.315Z,0.00
2019-05-25T03:20:34.310Z,0.00
2019-05-25T03:21:34.292Z,0.00
2019-05-25T03:22:34.285Z,0.00
2019-05-25T03:23:34.270Z,0.00
2019-05-25T03:24:34.262Z,0.00
2019-05-25T03:25:48.523Z,0.00
2019-05-25T03:26:35.239Z,0.00
2019-05-25T03:27:34.227Z,0.00
2019-05-25T03:28:34.219Z,0.00
2019-05-25T03:29:34.217Z,0.00
2019-05-25T03:30:34.213Z,0.00
2019-05-25T03:31:34.185Z,0.00
2019-05-25T03:32:34.173Z,0.00
2019-05-25T03:33:34.166Z,0.00
2019-05-25T03:34:34.198Z,0.00
2019-05-25T03:35:34.150Z,0.00
2019-05-25T03:36:34.133Z,0.00
2019-05-25T03:37:34.119Z,5.62
2019-05-25T03:38:34.113Z,5.62
2019-05-25T03:39:34.123Z,5.62
2019-05-25T03:40:34.098Z,5.62
2019-05-25T03:41:34.078Z,5.62
2019-05-25T03:42:34.065Z,5.62
2019-05-25T03:43:34.109Z,5.62
2019-05-25T03:44:34.050Z,5.62
2019-05-25T03:45:34.045Z,5.62
2019-05-25T03:46:34.022Z,5.62
2019-05-25T03:47:34.011Z,5.62
2019-05-25T03:48:34.001Z,11.25
2019-05-25T03:49:33.991Z,11.25
2019-05-25T03:50:34.004Z,11.25
2019-05-25T03:51:33.969Z,11.25
2019-05-25T03:52:33.959Z,11.25
2019-05-25T03:53:33.947Z,11.25
2019-05-25T03:54:33.936Z,11.25
2019-05-25T03:55:33.937Z,16.88
2019-05-25T03:56:33.923Z,16.88
2019-05-25T03:57:33.906Z,16.88
2019-05-25T03:58:33.893Z,16.88
2019-05-25T03:59:33.882Z,16.88
2019-05-25T04:00:33.883Z,16.88
2019-05-25T04:01:33.862Z,22.50
2019-05-25T04:02:33.849Z,22.50
2019-05-25T04:03:33.847Z,22.50
2019-05-25T04:04:33.829Z,22.50
2019-05-25T04:05:33.828Z,28.12
2019-05-25T04:06:33.806Z,28.12
2019-05-25T04:07:33.794Z,28.12
2019-05-25T04:08:33.791Z,28.12
2019-05-25T04:09:33.774Z,28.12
2019-05-25T04:10:33.762Z,28.12
2019-05-25T04:11:33.767Z,33.75
2019-05-25T04:12:33.740Z,33.75
2019-05-25T04:13:33.731Z,33.75
2019-05-25T04:14:33.720Z,33.75
2019-05-25T04:15:33.710Z,33.75
2019-05-25T04:16:33.712Z,33.75
2019-05-25T04:17:33.688Z,33.75
2019-05-25T04:18:33.676Z,33.75
2019-05-25T04:19:33.665Z,33.75
2019-05-25T04:20:33.656Z,33.75
2019-05-25T04:21:33.659Z,33.75
2019-05-25T04:22:33.632Z,33.75
2019-05-25T04:23:33.621Z,33.75
2019-05-25T04:24:33.611Z,39.38
2019-05-25T04:25:33.601Z,39.38
2019-05-25T04:26:33.605Z,39.38
2019-05-25T04:27:33.579Z,45.00
2019-05-25T04:28:33.567Z,45.00
2019-05-25T04:29:33.557Z,50.62
2019-05-25T04:30:33.547Z,56.25
2019-05-25T04:31:33.548Z,56.25
2019-05-25T04:32:33.529Z,61.88
2019-05-25T04:33:33.514Z,67.50
2019-05-25T04:34:33.504Z,73.12
2019-05-25T04:35:33.505Z,73.12
2019-05-25T04:36:33.494Z,78.75
2019-05-25T04:37:33.480Z,78.75
2019-05-25T04:38:33.459Z,78.75
2019-05-25T04:39:33.448Z,84.38
2019-05-25T04:40:33.438Z,84.38
2019-05-25T04:41:33.439Z,84.38
2019-05-25T04:42:33.417Z,84.38
2019-05-25T04:43:33.407Z,84.38
2019-05-25T04:44:33.402Z,84.38
2019-05-25T04:45:33.404Z,84.38
2019-05-25T04:46:33.385Z,84.38
2019-05-25T04:47:33.368Z,84.38
2019-05-25T04:48:33.355Z,84.38
2019-05-25T04:49:33.349Z,84.38
2019-05-25T04:50:33.331Z,78.75
2019-05-25T04:51:33.335Z,78.75
2019-05-25T04:52:33.308Z,78.75
2019-05-25T04:53:33.298Z,78.75
2019-05-25T04:54:33.288Z,78.75
2019-05-25T04:55:33.275Z,78.75
2019-05-25T04:56:39.558Z,78.75
2019-05-25T04:57:34.255Z,84.38
2019-05-25T04:58:33.258Z,84.38
2019-05-25T04:59:33.232Z,84.38
2019-05-25T05:00:33.226Z,90.00
2019-05-25T05:01:33.225Z,90.00
2019-05-25T05:02:33.201Z,90.00
2019-05-25T05:03:33.204Z,95.62
2019-05-25T05:04:33.178Z,95.62
2019-05-25T05:05:33.168Z,95.62
2019-05-25T05:06:33.323Z,95.62
2019-05-25T05:07:33.147Z,95.62
2019-05-25T05:08:35.591Z,95.62
2019-05-25T05:09:33.126Z,95.62
2019-05-25T05:10:33.117Z,95.62
2019-05-25T05:11:33.115Z,90.00
2019-05-25T05:12:33.103Z,90.00
2019-05-25T05:13:33.086Z,90.00
2019-05-25T05:14:33.071Z,95.62
2019-05-25T05:15:33.062Z,95.62
2019-05-25T05:16:33.053Z,95.62
2019-05-25T05:17:33.051Z,95.62
2019-05-25T05:18:33.027Z,95.62
2019-05-25T05:19:33.017Z,95.62
2019-05-25T05:20:33.006Z,101.25
2019-05-25T05:21:32.994Z,101.25
2019-05-25T05:22:33.006Z,101.25
2019-05-25T05:23:32.973Z,106.88
2019-05-25T05:24:32.964Z,106.88
2019-05-25T05:25:32.953Z,112.50
2019-05-25T05:26:32.940Z,112.50
2019-05-25T05:27:32.946Z,118.12
2019-05-25T05:28:32.920Z,118.12
2019-05-25T05:29:32.910Z,118.12
2019-05-25T05:30:32.904Z,118.12
2019-05-25T05:31:32.888Z,118.12
2019-05-25T05:32:32.887Z,118.12
2019-05-25T05:33:32.885Z,118.12
2019-05-25T05:34:32.863Z,118.12
2019-05-25T05:35:32.846Z,118.12
2019-05-25T05:36:32.842Z,118.12
2019-05-25T05:37:32.837Z,118.12
2019-05-25T05:38:32.814Z,112.50
2019-05-25T05:39:32.812Z,106.88
2019-05-25T05:40:32.801Z,106.88
2019-05-25T05:41:32.794Z,112.50
2019-05-25T05:42:32.784Z,112.50
2019-05-25T05:43:32.758Z,112.50
2019-05-25T05:44:32.747Z,112.50
2019-05-25T05:45:32.759Z,112.50
2019-05-25T05:46:32.731Z,118.12
2019-05-25T05:47:32.731Z,118.12
2019-05-25T05:48:32.712Z,118.12
2019-05-25T05:49:32.700Z,118.12
2019-05-25T05:50:32.682Z,123.75
2019-05-25T05:51:32.775Z,123.75
2019-05-25T05:52:32.682Z,118.12
2019-05-25T05:53:32.651Z,112.50
2019-05-25T05:54:32.729Z,101.25
2019-05-25T05:55:32.630Z,95.62
2019-05-25T05:56:32.617Z,90.00
2019-05-25T05:57:32.619Z,90.00
2019-05-25T05:58:32.604Z,90.00
2019-05-25T05:59:32.586Z,90.00
2019-05-25T06:00:32.576Z,90.00
2019-05-25T06:01:32.566Z,90.00
2019-05-25T06:02:32.568Z,90.00
2019-05-25T06:03:32.543Z,90.00
2019-05-25T06:04:32.548Z,90.00
2019-05-25T06:05:32.522Z,90.00
2019-05-25T06:06:32.511Z,90.00
2019-05-25T06:07:32.513Z,90.00
2019-05-25T06:08:32.492Z,90.00
2019-05-25T06:09:32.488Z,90.00
2019-05-25T06:10:32.469Z,95.62
2019-05-25T06:11:32.457Z,95.62
2019-05-25T06:12:32.459Z,95.62
2019-05-25T06:13:32.436Z,95.62
2019-05-25T06:14:32.440Z,101.25
2019-05-25T06:15:32.423Z,101.25
2019-05-25T06:16:32.404Z,101.25
2019-05-25T06:17:32.404Z,106.88
2019-05-25T06:18:32.382Z,106.88
2019-05-25T06:19:32.372Z,106.88
2019-05-25T06:20:32.360Z,106.88
2019-05-25T06:21:32.365Z,106.88
2019-05-25T06:22:32.357Z,112.50
2019-05-25T06:23:32.332Z,112.50
2019-05-25T06:24:32.318Z,112.50
2019-05-25T06:25:32.318Z,112.50
2019-05-25T06:26:32.297Z,112.50
2019-05-25T06:27:32.303Z,112.50
2019-05-25T06:28:32.276Z,112.50
2019-05-25T06:29:32.270Z,118.12
2019-05-25T06:30:32.252Z,118.12
2019-05-25T06:31:32.242Z,118.12
2019-05-25T06:32:32.241Z,118.12
2019-05-25T06:33:32.219Z,118.12
2019-05-25T06:34:32.216Z,118.12
2019-05-25T06:35:32.212Z,118.12
2019-05-25T06:36:32.191Z,118.12
2019-05-25T06:37:32.191Z,123.75
2019-05-25T06:38:32.169Z,123.75
2019-05-25T06:39:32.157Z,123.75
2019-05-25T06:40:32.144Z,123.75
2019-05-25T06:41:32.135Z,123.75
2019-05-25T06:42:32.137Z,123.75
2019-05-25T06:43:32.112Z,123.75
2019-05-25T06:44:32.110Z,123.75
2019-05-25T06:45:32.096Z,123.75
2019-05-25T06:46:32.130Z,123.75
2019-05-25T06:47:32.081Z,129.38
2019-05-25T06:48:32.061Z,129.38
2019-05-25T06:49:32.049Z,129.38
2019-05-25T06:50:32.038Z,129.38
2019-05-25T06:51:32.030Z,129.38
2019-05-25T06:52:32.027Z,129.38
2019-05-25T06:53:32.010Z,129.38
2019-05-25T06:54:31.994Z,129.38
2019-05-25T06:55:31.984Z,135.00
2019-05-25T06:56:31.975Z,135.00
2019-05-25T06:57:42.680Z,135.00
2019-05-25T06:58:32.952Z,135.00
2019-05-25T06:59:31.941Z,129.38
2019-05-25T07:00:31.930Z,129.38
2019-05-25T07:01:31.920Z,129.38
2019-05-25T07:02:31.910Z,135.00
2019-05-25T07:03:31.905Z,146.25
2019-05-25T07:04:31.891Z,146.25
2019-05-25T07:05:31.876Z,146.25
2019-05-25T07:06:31.867Z,146.25
2019-05-25T07:07:31.858Z,146.25
2019-05-25T07:08:31.848Z,146.25
2019-05-25T07:09:31.836Z,146.25
2019-05-25T07:10:31.828Z,140.62
2019-05-25T07:11:31.811Z,140.62
2019-05-25T07:12:31.804Z,140.62
2019-05-25T07:13:31.803Z,140.62
2019-05-25T07:14:31.781Z,140.62
2019-05-25T07:15:31.770Z,140.62
2019-05-25T07:16:31.761Z,140.62
2019-05-25T07:17:31.747Z,140.62
2019-05-25T07:18:35.281Z,140.62
2019-05-25T07:19:31.728Z,140.62
2019-05-25T07:20:31.714Z,140.62
2019-05-25T07:21:31.705Z,140.62
2019-05-25T07:22:31.699Z,140.62
2019-05-25T07:23:31.694Z,146.25
2019-05-25T07:24:31.674Z,146.25
2019-05-25T07:25:31.661Z,146.25
2019-05-25T07:26:31.652Z,146.25
2019-05-25T07:27:31.649Z,146.25
2019-05-25T07:28:31.650Z,146.25
2019-05-25T07:29:31.630Z,151.88
2019-05-25T07:30:31.610Z,151.88
2019-05-25T07:31:31.599Z,157.50
2019-05-25T07:32:31.585Z,157.50
2019-05-25T07:33:31.586Z,157.50
2019-05-25T07:34:31.563Z,157.50
2019-05-25T07:35:31.550Z,163.12
2019-05-25T07:36:31.540Z,163.12
2019-05-25T07:37:31.531Z,168.75
2019-05-25T07:38:31.536Z,174.38
2019-05-25T07:39:31.513Z,185.62
2019-05-25T07:40:31.500Z,191.25
2019-05-25T07:41:31.491Z,196.88
2019-05-25T07:42:31.477Z,208.12
2019-05-25T07:43:31.481Z,213.75
2019-05-25T07:44:31.453Z,213.75
2019-05-25T07:45:31.446Z,225.00
2019-05-25T07:46:31.431Z,230.62
2019-05-25T07:47:31.436Z,241.88
2019-05-25T07:48:31.439Z,247.50
2019-05-25T07:49:31.400Z,258.75
2019-05-25T07:50:31.390Z,258.75
2019-05-25T07:51:31.376Z,264.38
2019-05-25T07:52:31.365Z,264.38
2019-05-25T07:53:31.371Z,264.38
2019-05-25T07:54:31.354Z,258.75
2019-05-25T07:55:31.415Z,258.75
2019-05-25T07:56:31.330Z,264.38
2019-05-25T07:57:31.312Z,286.88
2019-05-25T07:58:31.313Z,298.12
2019-05-25T07:59:31.291Z,309.38
2019-05-25T08:00:31.280Z,315.00
2019-05-25T08:01:31.273Z,320.62
2019-05-25T08:02:31.259Z,315.00
2019-05-25T08:03:31.275Z,309.38
2019-05-25T08:04:31.236Z,298.12
2019-05-25T08:05:31.225Z,292.50
2019-05-25T08:06:31.234Z,281.25
2019-05-25T08:07:31.216Z,281.25
2019-05-25T08:08:31.199Z,281.25
2019-05-25T08:09:31.288Z,275.62
2019-05-25T08:10:31.172Z,270.00
2019-05-25T08:11:31.164Z,264.38
2019-05-25T08:12:31.187Z,275.62
2019-05-25T08:13:31.140Z,286.88
2019-05-25T08:14:31.141Z,303.75
2019-05-25T08:15:31.125Z,309.38
2019-05-25T08:16:31.109Z,309.38
2019-05-25T08:17:31.097Z,303.75
2019-05-25T08:18:31.087Z,292.50
2019-05-25T08:19:31.087Z,275.62
2019-05-25T08:20:31.066Z,258.75
2019-05-25T08:21:31.060Z,253.12
2019-05-25T08:22:31.042Z,247.50
2019-05-25T08:23:31.032Z,247.50
2019-05-25T08:24:31.034Z,253.12
2019-05-25T08:25:31.010Z,258.75
2019-05-25T08:26:31.009Z,258.75
2019-05-25T08:27:31.002Z,264.38
2019-05-25T08:28:33.031Z,270.00
2019-05-25T08:29:30.979Z,270.00
2019-05-25T08:30:30.961Z,270.00
2019-05-25T08:31:30.949Z,258.75
2019-05-25T08:32:30.934Z,258.75
2019-05-25T08:33:30.948Z,253.12
2019-05-25T08:34:30.927Z,247.50
2019-05-25T08:35:30.902Z,241.88
2019-05-25T08:36:30.890Z,236.25
2019-05-25T08:37:30.881Z,236.25
2019-05-25T08:38:30.869Z,241.88
2019-05-25T08:39:30.873Z,241.88
2019-05-25T08:40:30.868Z,236.25
2019-05-25T08:41:30.837Z,247.50
2019-05-25T08:42:30.827Z,258.75
2019-05-25T08:43:30.815Z,264.38
2019-05-25T08:44:30.815Z,253.12
2019-05-25T08:45:30.803Z,258.75
2019-05-25T08:46:30.782Z,270.00
2019-05-25T08:47:30.775Z,264.38
2019-05-25T08:48:30.761Z,258.75
2019-05-25T08:49:30.761Z,264.38
2019-05-25T08:50:38.316Z,241.88
2019-05-25T08:51:31.727Z,236.25
2019-05-25T08:52:30.717Z,236.25
2019-05-25T08:53:40.755Z,253.12
2019-05-25T08:54:31.714Z,253.12
2019-05-25T08:55:30.685Z,253.12
2019-05-25T08:56:30.676Z,247.50
2019-05-25T08:57:30.665Z,241.88
2019-05-25T08:58:30.651Z,253.12
2019-05-25T08:59:30.642Z,253.12
2019-05-25T09:00:30.635Z,258.75
2019-05-25T09:01:30.625Z,264.38
2019-05-25T09:02:30.614Z,270.00
2019-05-25T09:03:30.598Z,275.62
2019-05-25T09:04:30.588Z,275.62
2019-05-25T09:05:30.582Z,281.25
2019-05-25T09:06:30.569Z,275.62
2019-05-25T09:07:30.565Z,281.25
2019-05-25T09:08:30.570Z,281.25
2019-05-25T09:09:30.534Z,281.25
2019-05-25T09:10:30.534Z,286.88
2019-05-25T09:11:30.514Z,292.50
2019-05-25T09:12:30.502Z,292.50
2019-05-25T09:13:30.489Z,298.12
2019-05-25T09:14:30.481Z,303.75
2019-05-25T09:15:30.485Z,309.38
2019-05-25T09:16:30.462Z,309.38
2019-05-25T09:17:30.447Z,315.00
2019-05-25T09:18:30.439Z,326.25
2019-05-25T09:19:30.425Z,331.88
2019-05-25T09:20:30.419Z,343.12
2019-05-25T09:21:30.404Z,348.75
2019-05-25T09:22:30.395Z,343.12
2019-05-25T09:23:30.383Z,354.38
2019-05-25T09:24:30.371Z,348.75
2019-05-25T09:25:30.394Z,337.50
2019-05-25T09:26:30.350Z,331.88
2019-05-25T09:27:30.364Z,320.62
2019-05-25T09:28:30.328Z,303.75
2019-05-25T09:29:30.318Z,326.25
2019-05-25T09:30:30.316Z,320.62
2019-05-25T09:31:30.299Z,331.88
2019-05-25T09:32:30.329Z,354.38
2019-05-25T09:33:30.275Z,382.50
2019-05-25T09:34:30.269Z,405.00
2019-05-25T09:35:30.258Z,393.75
2019-05-25T09:36:30.247Z,433.12
2019-05-25T09:37:30.268Z,478.12
2019-05-25T09:38:30.249Z,461.25
2019-05-25T09:39:30.228Z,472.50
2019-05-25T09:40:30.207Z,511.88
2019-05-25T09:41:30.191Z,545.62
2019-05-25T09:42:30.183Z,568.12
2019-05-25T09:43:30.169Z,590.62
2019-05-25T09:44:30.162Z,624.38
2019-05-25T09:45:30.154Z,646.88
2019-05-25T09:46:30.138Z,663.75
2019-05-25T09:47:30.129Z,669.38
2019-05-25T09:48:30.116Z,669.38
2019-05-25T09:49:30.105Z,669.38
2019-05-25T09:50:30.103Z,646.88
2019-05-25T09:51:30.084Z,613.12
2019-05-25T09:52:30.072Z,585.00
2019-05-25T09:53:30.080Z,556.88
2019-05-25T09:54:30.051Z,523.12
2019-05-25T09:55:30.044Z,478.12
2019-05-25T09:56:30.031Z,450.00
2019-05-25T09:57:30.021Z,427.50
2019-05-25T09:58:30.011Z,410.62
2019-05-25T09:59:29.997Z,393.75
2019-05-25T10:00:29.993Z,382.50
2019-05-25T10:01:30.001Z,371.25
2019-05-25T10:02:29.975Z,365.62
2019-05-25T10:03:29.957Z,354.38
2019-05-25T10:04:29.944Z,337.50
2019-05-25T10:05:29.936Z,320.62
2019-05-25T10:06:29.948Z,303.75
2019-05-25T10:07:29.912Z,292.50
2019-05-25T10:08:29.900Z,281.25
2019-05-25T10:09:29.892Z,275.62
2019-05-25T10:10:29.900Z,270.00
2019-05-25T10:11:29.869Z,264.38
2019-05-25T10:12:29.858Z,270.00
2019-05-25T10:13:29.848Z,258.75
2019-05-25T10:14:29.837Z,258.75
2019-05-25T10:15:29.837Z,253.12
2019-05-25T10:16:29.819Z,253.12
2019-05-25T10:17:29.804Z,253.12
2019-05-25T10:18:29.794Z,247.50
2019-05-25T10:19:29.783Z,247.50
2019-05-25T10:20:29.787Z,241.88
2019-05-25T10:21:29.765Z,236.25
2019-05-25T10:22:29.754Z,230.62
2019-05-25T10:23:29.743Z,225.00
2019-05-25T10:24:29.730Z,219.38
2019-05-25T10:25:29.731Z,213.75
2019-05-25T10:26:29.708Z,213.75
2019-05-25T10:27:29.699Z,208.12
2019-05-25T10:28:29.690Z,208.12
2019-05-25T10:29:37.078Z,196.88
2019-05-25T10:30:30.676Z,191.25
2019-05-25T10:31:29.654Z,191.25
2019-05-25T10:32:29.643Z,196.88
2019-05-25T10:33:29.629Z,196.88
2019-05-25T10:34:29.624Z,196.88
2019-05-25T10:35:29.630Z,196.88
2019-05-25T10:36:29.597Z,196.88
2019-05-25T10:37:29.590Z,196.88
2019-05-25T10:38:29.575Z,191.25
2019-05-25T10:39:29.565Z,185.62
2019-05-25T10:40:29.570Z,180.00
2019-05-25T10:41:29.544Z,174.38
2019-05-25T10:42:29.532Z,174.38
2019-05-25T10:43:29.521Z,174.38
2019-05-25T10:44:29.511Z,174.38
2019-05-25T10:45:29.533Z,174.38
2019-05-25T10:46:29.495Z,168.75
2019-05-25T10:47:29.527Z,163.12
2019-05-25T10:48:29.466Z,157.50
2019-05-25T10:49:29.457Z,151.88
2019-05-25T10:50:29.465Z,146.25
2019-05-25T10:51:29.434Z,151.88
2019-05-25T10:52:29.427Z,140.62
2019-05-25T10:53:29.414Z,146.25
2019-05-25T10:54:29.402Z,146.25
2019-05-25T10:55:29.401Z,151.88
2019-05-25T10:56:29.381Z,163.12
2019-05-25T10:57:29.369Z,168.75
2019-05-25T10:58:29.363Z,180.00
2019-05-25T10:59:29.348Z,191.25
2019-05-25T11:00:29.362Z,202.50
2019-05-25T11:01:29.326Z,213.75
2019-05-25T11:02:29.320Z,230.62
2019-05-25T11:03:29.305Z,247.50
2019-05-25T11:04:29.293Z,270.00
2019-05-25T11:05:29.280Z,286.88
2019-05-25T11:06:29.283Z,315.00
2019-05-25T11:07:29.262Z,337.50
2019-05-25T11:08:29.249Z,354.38
2019-05-25T11:09:29.243Z,371.25
2019-05-25T11:10:29.275Z,376.88
2019-05-25T11:11:29.227Z,365.62
2019-05-25T11:12:29.206Z,365.62
2019-05-25T11:13:29.195Z,371.25
2019-05-25T11:14:29.186Z,365.62
2019-05-25T11:15:29.177Z,371.25
2019-05-25T11:16:29.186Z,376.88
2019-05-25T11:17:29.150Z,399.38
2019-05-25T11:18:29.158Z,421.88
2019-05-25T11:19:29.149Z,438.75
2019-05-25T11:20:29.130Z,444.38
2019-05-25T11:21:29.121Z,466.88
2019-05-25T11:22:29.100Z,478.12
2019-05-25T11:23:29.085Z,495.00
2019-05-25T11:24:29.076Z,506.25
2019-05-25T11:25:29.066Z,523.12
2019-05-25T11:26:29.067Z,540.00
2019-05-25T11:27:29.048Z,545.62
2019-05-25T11:28:29.035Z,545.62
2019-05-25T11:29:29.022Z,545.62
2019-05-25T11:30:29.014Z,551.25
2019-05-25T11:31:29.118Z,545.62
2019-05-25T11:32:28.993Z,540.00
2019-05-25T11:33:28.988Z,540.00
2019-05-25T11:34:28.973Z,556.88
2019-05-25T11:35:28.958Z,579.38
2019-05-25T11:36:28.959Z,607.50
2019-05-25T11:37:28.938Z,658.12
2019-05-25T11:38:28.926Z,725.62
2019-05-25T11:39:28.919Z,804.38
2019-05-25T11:40:28.905Z,888.75
2019-05-25T11:41:28.909Z,1018.12
2019-05-25T11:42:28.885Z,1063.12
2019-05-25T11:43:28.875Z,1063.12
2019-05-25T11:44:28.862Z,1023.75
2019-05-25T11:45:28.873Z,1012.50
2019-05-25T11:46:28.852Z,956.25
2019-05-25T11:47:28.831Z,916.88
2019-05-25T11:48:28.831Z,815.62
2019-05-25T11:49:28.808Z,793.12
2019-05-25T11:50:28.797Z,826.88
2019-05-25T11:51:28.815Z,928.12
2019-05-25T11:52:28.778Z,928.12
2019-05-25T11:53:28.773Z,905.62
2019-05-25T11:54:28.866Z,883.12
2019-05-25T11:55:28.746Z,945.00
2019-05-25T11:56:28.747Z,990.00
2019-05-25T11:57:28.725Z,1035.00
2019-05-25T11:58:28.720Z,1023.75
2019-05-25T11:59:28.703Z,956.25
2019-05-25T12:00:28.698Z,731.25
2019-05-25T12:01:28.706Z,658.12
2019-05-25T12:02:28.672Z,624.38
2019-05-25T12:03:28.670Z,596.25
2019-05-25T12:04:28.652Z,601.88
2019-05-25T12:05:28.639Z,641.25
2019-05-25T12:06:28.643Z,714.38
2019-05-25T12:07:28.618Z,793.12
2019-05-25T12:08:28.606Z,860.62
2019-05-25T12:09:28.597Z,1040.62
2019-05-25T12:10:28.585Z,1231.88
2019-05-25T12:11:28.604Z,1215.00
2019-05-25T12:12:28.563Z,1158.75
2019-05-25T12:13:31.953Z,1102.50
2019-05-25T12:14:28.545Z,1063.12
2019-05-25T12:15:28.532Z,1063.12
2019-05-25T12:16:28.539Z,1102.50
2019-05-25T12:17:28.510Z,1153.12
2019-05-25T12:18:28.503Z,1203.75
2019-05-25T12:19:28.490Z,1215.00
2019-05-25T12:20:28.487Z,1276.88
2019-05-25T12:21:28.484Z,1901.25
2019-05-25T12:22:28.459Z,3526.88
2019-05-25T12:23:28.449Z,4185.00
2019-05-25T12:24:28.443Z,4404.38
2019-05-25T12:25:28.427Z,4443.75
2019-05-25T12:26:28.430Z,4336.88
2019-05-25T12:27:28.408Z,4471.88
2019-05-25T12:28:28.412Z,4455.00
2019-05-25T12:29:28.388Z,4438.12
2019-05-25T12:30:40.217Z,4252.50
2019-05-25T12:31:29.382Z,4308.75
2019-05-25T12:32:28.361Z,4691.25
2019-05-25T12:33:28.349Z,4730.62
2019-05-25T12:34:28.341Z,4674.38
2019-05-25T12:35:28.332Z,4668.75
2019-05-25T12:36:28.333Z,4455.00
2019-05-25T12:37:28.316Z,3678.75
2019-05-25T12:38:28.306Z,2356.88
2019-05-25T12:39:28.299Z,4618.12
2019-05-25T12:40:28.282Z,4719.38
2019-05-25T12:41:28.285Z,4848.75
2019-05-25T12:42:28.263Z,4719.38
2019-05-25T12:43:28.254Z,4753.12
2019-05-25T12:44:28.285Z,4674.38